Paxton, FL

6:16 AM CDT on October 25, 2014 (GMT -0500)
Florala | Change Station
CLOSE
Current Station
Airport
Location: Florala,
Elevation: 315 ft
Nearby Weather Stations

Elev 315 ft 31.04 °N, 86.31 °W | Updated 18 minutes ago

Clear
Clear
50 °F
Feels Like 50 °F
N
5
Wind Variable Wind from NNW

Today
High -- | Low -- °F
--% Chance of Precip.
Yesterday
High -- | Low -- °F
Precip. -- in
6:55 AM 6:03 PM
Waxing Crescent, 3% visible
Pressure 30.07 in
Visibility 10.0 miles
Clouds Clear
Dew Point 43 °F
Humidity 77%
Rainfall 0.00 in
Snow Depth Not available.
UV 0 out of 12
Pollen 3.50 out of 12
Air Quality Not available.
Flu Activity Local Activity
METAR K0J4 251058Z AUTO 33004KT 10SM CLR 10/06 A3008 RMK AO2 SLP183 T01000061 $

More Conditions Fewer Conditions

Pressure 30.07 in
Visibility 10.0 miles
Clouds Clear
Dew Point 43 °F
Humidity 77%
Rainfall 0.00 in
Snow Depth Not available.
UV 0 out of 12
Pollen 3.50 out of 12
Air Quality Not available.
Flu Activity Local Activity
METAR K0J4 251058Z AUTO 33004KT 10SM CLR 10/06 A3008 RMK AO2 SLP183 T01000061 $

More Conditions Fewer Conditions

10-Day Weather Forecast

Almanac

Astronomy

Oct. 25, 2014 Rise Set
Actual Time 6:55 AM CDT 6:03 PM CDT
Civil Twilight 6:30 AM CDT 6:27 PM CDT
Nautical Twilight 6:02 AM CDT 6:56 PM CDT
Astronomical Twilight 5:33 AM CDT 7:24 PM CDT
Moon 8:28 AM CDT 7:31 PM CDT
Length of Visible Light 11h 57m
Length of Day
11h 08m
Tomorrow will be 1m 43s shorter.
Waxing Crescent, 3% of the Moon is Illuminated
Today
Waxing Crescent
Oct 30
First Quarter
Nov 6
Full
Nov 14
Last Quarter
Nov 22
New

Today's Extremes

State Highs State Lows

Community

WunderPhotos

Upload Photos

1,764,808 photos uploaded!

Nearby

Snow Depth

Station Depth Elevation
No new snow has been reported.

Earthquake Activity

City Distance Mag. Time & Date
No recent earthquake activity has been reported nearby.
Minimum magnitude displayed is 2.5.

Coastal Water Temperatures

Place Temperature
No Stations Reporting

Nearby Weather Stations